Time;durP1;ratioP1;P1;durP2;ratioP2;P2;SDS_P1;SDS_P2;PMS_P1;PMS_P2;Temp;Humidity;BMP_temperature;BMP_pressure;BME280_temperature;BME280_humidity;BME280_pressure;Samples;Min_cycle;Max_cycle;Signal;HPM_P1;HPM_P2
2023/12/28 00:00:28;;;;;;;10.48;6.85;;;;;;;;;;5040754;28;20906;-69
2023/12/28 00:02:55;;;;;;;9.65;6.85;;;;;;;;;;5039114;28;20868;-69
2023/12/28 00:05:22;;;;;;;12.07;6.90;;;;;;;;;;5039079;28;20440;-69
2023/12/28 00:07:56;;;;;;;10.23;6.78;;;;;;;;;;5032989;28;20427;-69
2023/12/28 00:10:25;;;;;;;9.63;6.85;;;;;;;;;;5044156;28;20457;-69
2023/12/28 00:12:52;;;;;;;9.10;6.55;;;;;;;;;;5041829;28;20544;-69
2023/12/28 00:15:19;;;;;;;8.55;6.20;;;;;;;;;;5040991;28;20430;-70
2023/12/28 00:17:46;;;;;;;9.50;6.45;;;;;;;;;;5040481;28;20429;-69
2023/12/28 00:20:14;;;;;;;9.80;6.25;;;;;;;;;;5043134;28;20437;-69
2023/12/28 00:22:41;;;;;;;11.38;6.13;;;;;;;;;;5039629;28;20425;-69
2023/12/28 00:25:08;;;;;;;7.40;5.30;;;;;;;;;;5042730;28;20433;-69
2023/12/28 00:27:37;;;;;;;8.90;5.80;;;;;;;;;;5038814;28;20444;-69
2023/12/28 00:30:05;;;;;;;6.90;5.20;;;;;;;;;;5040802;28;20427;-69
2023/12/28 00:32:33;;;;;;;9.35;5.63;;;;;;;;;;5038649;28;20432;-70
2023/12/28 00:35:00;;;;;;;6.53;5.30;;;;;;;;;;5039939;28;20425;-69
2023/12/28 00:37:30;;;;;;;8.95;5.68;;;;;;;;;;5038549;28;20931;-70
2023/12/28 00:40:02;;;;;;;9.87;6.03;;;;;;;;;;5030970;28;20542;-69
2023/12/28 00:42:30;;;;;;;10.03;6.00;;;;;;;;;;5036941;28;20439;-70
2023/12/28 00:45:05;;;;;;;7.50;5.80;;;;;;;;;;5036561;28;20909;-69
2023/12/28 00:47:32;;;;;;;6.97;5.40;;;;;;;;;;5033096;28;20442;-69
2023/12/28 00:50:02;;;;;;;8.20;5.13;;;;;;;;;;5035501;28;20427;-69
2023/12/28 00:52:29;;;;;;;6.82;4.50;;;;;;;;;;5036666;28;20431;-69
2023/12/28 00:54:56;;;;;;;5.93;4.60;;;;;;;;;;5043195;28;20472;-69
2023/12/28 00:57:24;;;;;;;6.35;4.40;;;;;;;;;;5036467;28;20511;-69
2023/12/28 00:59:51;;;;;;;7.93;4.05;;;;;;;;;;5038440;28;20429;-70
2023/12/28 01:02:21;;;;;;;7.75;4.05;;;;;;;;;;5036301;28;20534;-70
2023/12/28 01:04:48;;;;;;;6.13;4.13;;;;;;;;;;5047794;28;20437;-69
2023/12/28 01:07:15;;;;;;;5.53;3.80;;;;;;;;;;5036891;28;20496;-69
2023/12/28 01:09:43;;;;;;;4.80;3.50;;;;;;;;;;5045005;28;20960;-70
2023/12/28 01:12:10;;;;;;;4.70;3.40;;;;;;;;;;5042973;28;20931;-69
2023/12/28 01:14:37;;;;;;;3.72;3.30;;;;;;;;;;5041408;28;21238;-69
2023/12/28 01:17:04;;;;;;;3.92;3.50;;;;;;;;;;5044243;28;20504;-69
2023/12/28 01:19:31;;;;;;;4.05;3.05;;;;;;;;;;5042398;28;20551;-69
2023/12/28 01:21:59;;;;;;;5.68;3.17;;;;;;;;;;5038688;28;20466;-69
2023/12/28 01:24:26;;;;;;;3.85;3.03;;;;;;;;;;5039495;28;20510;-69
2023/12/28 01:26:53;;;;;;;5.53;3.22;;;;;;;;;;5037395;28;20429;-70
2023/12/28 01:29:21;;;;;;;3.38;3.08;;;;;;;;;;5028750;28;20434;-69
2023/12/28 01:31:50;;;;;;;3.42;3.05;;;;;;;;;;5035885;28;20530;-69
2023/12/28 01:34:24;;;;;;;3.38;3.00;;;;;;;;;;5041638;28;20430;-69
2023/12/28 01:36:54;;;;;;;3.05;2.85;;;;;;;;;;5043957;28;20514;-69
2023/12/28 01:39:21;;;;;;;4.45;3.05;;;;;;;;;;5027568;28;20461;-69
2023/12/28 01:41:49;;;;;;;4.80;3.30;;;;;;;;;;5030690;28;20442;-69
2023/12/28 01:44:18;;;;;;;4.88;3.47;;;;;;;;;;5036335;28;20832;-69
2023/12/28 01:46:46;;;;;;;4.90;3.58;;;;;;;;;;5045434;28;20521;-69
2023/12/28 01:49:13;;;;;;;4.77;3.20;;;;;;;;;;5036106;28;20442;-69
2023/12/28 01:51:40;;;;;;;6.50;3.63;;;;;;;;;;5041935;28;20460;-70
2023/12/28 01:54:14;;;;;;;4.17;3.07;;;;;;;;;;5039036;28;20440;-70
2023/12/28 01:56:41;;;;;;;3.90;3.35;;;;;;;;;;5036207;28;20425;-69
2023/12/28 01:59:08;;;;;;;5.28;3.35;;;;;;;;;;5043843;28;20487;-70
2023/12/28 02:01:36;;;;;;;4.20;3.43;;;;;;;;;;5040003;28;20432;-70
2023/12/28 02:04:06;;;;;;;4.32;3.38;;;;;;;;;;5031313;28;20442;-69
2023/12/28 02:06:34;;;;;;;5.03;3.20;;;;;;;;;;5037707;28;20469;-70
2023/12/28 02:09:01;;;;;;;3.55;3.15;;;;;;;;;;5037364;28;20786;-69
2023/12/28 02:11:28;;;;;;;3.80;3.17;;;;;;;;;;5039652;28;20518;-70
2023/12/28 02:13:55;;;;;;;3.72;3.15;;;;;;;;;;5036295;28;20421;-68
2023/12/28 02:16:28;;;;;;;4.43;3.07;;;;;;;;;;5040331;28;20444;-69
2023/12/28 02:18:57;;;;;;;3.45;3.15;;;;;;;;;;5031829;28;20435;-69
2023/12/28 02:21:28;;;;;;;4.43;3.20;;;;;;;;;;5032879;28;20809;-69
2023/12/28 02:23:56;;;;;;;3.40;3.10;;;;;;;;;;5031636;28;20441;-69
2023/12/28 02:26:23;;;;;;;3.58;3.00;;;;;;;;;;5041713;28;20427;-69
2023/12/28 02:28:50;;;;;;;3.47;3.17;;;;;;;;;;5046064;28;20507;-68
2023/12/28 02:31:28;;;;;;;3.55;3.10;;;;;;;;;;5046089;28;20810;-68
2023/12/28 02:33:59;;;;;;;3.17;2.88;;;;;;;;;;5047017;28;20526;-69
2023/12/28 02:36:27;;;;;;;3.87;3.43;;;;;;;;;;5048699;28;20482;-69
2023/12/28 02:38:57;;;;;;;2.93;2.60;;;;;;;;;;5036964;28;20430;-69
2023/12/28 02:41:25;;;;;;;3.47;3.17;;;;;;;;;;5041688;28;20438;-69
2023/12/28 02:43:52;;;;;;;3.47;3.17;;;;;;;;;;5038645;28;20961;-69
2023/12/28 02:46:23;;;;;;;3.65;2.80;;;;;;;;;;5041119;28;22168;-69
2023/12/28 02:48:50;;;;;;;3.53;2.77;;;;;;;;;;5033150;28;20945;-69
2023/12/28 02:51:17;;;;;;;3.10;2.80;;;;;;;;;;5040950;28;20431;-69
2023/12/28 02:53:45;;;;;;;3.17;2.88;;;;;;;;;;5039505;28;20427;-69
2023/12/28 02:56:12;;;;;;;4.13;2.75;;;;;;;;;;5045395;28;20433;-69
2023/12/28 02:58:39;;;;;;;4.25;2.80;;;;;;;;;;5034518;28;20426;-69
2023/12/28 03:01:06;;;;;;;5.30;2.70;;;;;;;;;;5037970;28;20468;-69
2023/12/28 03:03:33;;;;;;;3.35;3.00;;;;;;;;;;5031941;28;20489;-69
2023/12/28 03:06:01;;;;;;;2.90;2.70;;;;;;;;;;5035025;28;20515;-69
2023/12/28 03:08:28;;;;;;;2.83;2.63;;;;;;;;;;5038467;28;20442;-69
2023/12/28 03:10:55;;;;;;;4.07;2.72;;;;;;;;;;5032254;28;20782;-69
2023/12/28 03:13:23;;;;;;;3.55;2.95;;;;;;;;;;5033328;28;20460;-69
2023/12/28 03:15:50;;;;;;;3.43;2.90;;;;;;;;;;5046084;28;20519;-69
2023/12/28 03:18:17;;;;;;;3.10;2.63;;;;;;;;;;5038888;28;20483;-69
2023/12/28 03:20:44;;;;;;;4.45;2.78;;;;;;;;;;5040575;28;20442;-69
2023/12/28 03:23:12;;;;;;;3.03;2.70;;;;;;;;;;5030532;28;20438;-69
2023/12/28 03:25:40;;;;;;;4.35;2.80;;;;;;;;;;5041391;28;21033;-69
2023/12/28 03:28:07;;;;;;;3.57;2.70;;;;;;;;;;5045915;28;20429;-69
2023/12/28 03:30:34;;;;;;;2.85;2.60;;;;;;;;;;5046551;28;20521;-69
2023/12/28 03:33:01;;;;;;;4.10;2.58;;;;;;;;;;5047498;28;20425;-69
2023/12/28 03:35:29;;;;;;;4.13;3.05;;;;;;;;;;5046249;28;20470;-69
2023/12/28 03:37:56;;;;;;;3.17;2.88;;;;;;;;;;5039742;28;20429;-69
2023/12/28 03:40:23;;;;;;;4.20;2.67;;;;;;;;;;5043605;28;20645;-69
2023/12/28 03:42:50;;;;;;;3.42;2.70;;;;;;;;;;5042748;28;20433;-69
2023/12/28 03:45:18;;;;;;;2.80;2.60;;;;;;;;;;5032942;28;20438;-69
2023/12/28 03:47:45;;;;;;;2.95;2.47;;;;;;;;;;5034767;28;20445;-69
2023/12/28 03:50:12;;;;;;;2.22;2.03;;;;;;;;;;5031698;28;20433;-69
2023/12/28 03:52:39;;;;;;;2.35;2.08;;;;;;;;;;5047310;28;20444;-69
2023/12/28 03:55:07;;;;;;;4.20;2.10;;;;;;;;;;5044011;28;21029;-69
2023/12/28 03:57:34;;;;;;;2.25;2.00;;;;;;;;;;5029957;28;20453;-69
2023/12/28 04:00:01;;;;;;;2.20;2.00;;;;;;;;;;5037137;28;20586;-69
2023/12/28 04:02:31;;;;;;;3.03;2.20;;;;;;;;;;5038507;28;20639;-69
2023/12/28 04:04:58;;;;;;;2.30;2.10;;;;;;;;;;5029538;28;20427;-69
2023/12/28 04:07:26;;;;;;;2.80;2.08;;;;;;;;;;5038759;28;20841;-69
2023/12/28 04:09:54;;;;;;;2.50;2.28;;;;;;;;;;5037789;28;20509;-69
2023/12/28 04:12:21;;;;;;;2.00;1.90;;;;;;;;;;5031788;28;20482;-69
2023/12/28 04:14:49;;;;;;;4.35;2.15;;;;;;;;;;5035127;28;20427;-69
2023/12/28 04:17:16;;;;;;;4.05;2.03;;;;;;;;;;5040234;28;20488;-69
2023/12/28 04:19:43;;;;;;;2.58;2.17;;;;;;;;;;5039186;28;20431;-69
2023/12/28 04:22:11;;;;;;;2.42;2.22;;;;;;;;;;5027509;28;20910;-69
2023/12/28 04:24:38;;;;;;;2.28;2.08;;;;;;;;;;5032705;28;20516;-69
2023/12/28 04:27:05;;;;;;;2.15;1.88;;;;;;;;;;5036703;28;20493;-69
2023/12/28 04:29:32;;;;;;;2.10;1.90;;;;;;;;;;5038649;28;20437;-69
2023/12/28 04:32:00;;;;;;;2.80;2.10;;;;;;;;;;5039665;28;20502;-69
2023/12/28 04:34:27;;;;;;;2.50;2.20;;;;;;;;;;5031402;28;20609;-69
2023/12/28 04:36:54;;;;;;;3.78;2.22;;;;;;;;;;5031852;28;20496;-69
2023/12/28 04:39:21;;;;;;;4.90;2.10;;;;;;;;;;5043404;28;20435;-69
2023/12/28 04:41:49;;;;;;;2.30;2.03;;;;;;;;;;5034429;28;20823;-69
2023/12/28 04:44:16;;;;;;;1.90;1.80;;;;;;;;;;5045338;28;20490;-69
2023/12/28 04:46:44;;;;;;;2.05;1.90;;;;;;;;;;5042759;28;20516;-69
2023/12/28 04:49:12;;;;;;;2.53;1.83;;;;;;;;;;5046373;28;20512;-69
2023/12/28 04:51:44;;;;;;;1.92;1.83;;;;;;;;;;5039935;28;20441;-69
2023/12/28 04:54:11;;;;;;;3.13;1.90;;;;;;;;;;5030821;28;20825;-69
2023/12/28 04:56:39;;;;;;;1.70;1.60;;;;;;;;;;5033024;28;20434;-69
2023/12/28 04:59:06;;;;;;;3.20;1.77;;;;;;;;;;5039332;28;20530;-69
2023/12/28 05:01:33;;;;;;;1.95;1.85;;;;;;;;;;5045280;28;20425;-69
2023/12/28 05:04:00;;;;;;;1.90;1.80;;;;;;;;;;5044590;28;20459;-69
2023/12/28 05:06:29;;;;;;;2.20;1.95;;;;;;;;;;5031997;28;20444;-70
2023/12/28 05:08:56;;;;;;;1.98;1.88;;;;;;;;;;5035474;28;20431;-69
2023/12/28 05:11:24;;;;;;;2.00;1.90;;;;;;;;;;5031411;28;20492;-69
2023/12/28 05:13:51;;;;;;;1.95;1.75;;;;;;;;;;5046073;28;20435;-69
2023/12/28 05:16:18;;;;;;;2.20;1.90;;;;;;;;;;5033413;28;20497;-69
2023/12/28 05:18:45;;;;;;;2.27;1.90;;;;;;;;;;5037439;28;20513;-69
2023/12/28 05:21:13;;;;;;;2.58;1.77;;;;;;;;;;5039541;28;20440;-69
2023/12/28 05:23:42;;;;;;;2.13;1.83;;;;;;;;;;5031689;28;20442;-69
2023/12/28 05:26:11;;;;;;;3.50;2.20;;;;;;;;;;5038922;28;21032;-69
2023/12/28 05:28:38;;;;;;;2.30;2.07;;;;;;;;;;5041209;28;20479;-69
2023/12/28 05:31:06;;;;;;;1.90;1.80;;;;;;;;;;5047951;28;20432;-70
2023/12/28 05:33:33;;;;;;;2.35;2.13;;;;;;;;;;5034263;28;20898;-70
2023/12/28 05:36:00;;;;;;;2.10;1.90;;;;;;;;;;5031746;28;20479;-70
2023/12/28 05:38:27;;;;;;;3.17;2.17;;;;;;;;;;5035981;28;20508;-69
2023/12/28 05:40:54;;;;;;;2.35;2.00;;;;;;;;;;5039051;28;20433;-70
2023/12/28 05:43:21;;;;;;;2.20;2.00;;;;;;;;;;5037491;28;20904;-70
2023/12/28 05:45:49;;;;;;;2.25;2.05;;;;;;;;;;5032260;28;20494;-69
2023/12/28 05:48:22;;;;;;;2.38;2.03;;;;;;;;;;5040023;28;21178;-69
2023/12/28 05:50:49;;;;;;;2.20;2.05;;;;;;;;;;5037513;28;20432;-70
2023/12/28 05:53:17;;;;;;;3.65;2.30;;;;;;;;;;5039772;28;20460;-70
2023/12/28 05:55:44;;;;;;;2.28;1.90;;;;;;;;;;5038272;28;20429;-69
2023/12/28 05:58:11;;;;;;;3.30;1.83;;;;;;;;;;5032303;28;20438;-70
2023/12/28 06:00:39;;;;;;;2.00;1.80;;;;;;;;;;5032569;28;20489;-69
2023/12/28 06:03:06;;;;;;;2.10;2.00;;;;;;;;;;5036055;28;20433;-69
2023/12/28 06:05:33;;;;;;;2.10;1.90;;;;;;;;;;5036611;28;20462;-69
2023/12/28 06:08:01;;;;;;;2.17;2.05;;;;;;;;;;5035435;28;20520;-69
2023/12/28 06:10:28;;;;;;;2.00;1.90;;;;;;;;;;5042938;28;20429;-70
2023/12/28 06:12:55;;;;;;;1.98;1.85;;;;;;;;;;5033826;28;20495;-70
2023/12/28 06:15:22;;;;;;;1.90;1.63;;;;;;;;;;5038498;28;20431;-69
2023/12/28 06:17:53;;;;;;;2.90;2.00;;;;;;;;;;5033585;28;20433;-70
2023/12/28 06:20:20;;;;;;;1.60;1.50;;;;;;;;;;5043611;28;20436;-70
2023/12/28 06:22:48;;;;;;;1.88;1.77;;;;;;;;;;5030172;28;20538;-70
2023/12/28 06:25:19;;;;;;;1.80;1.70;;;;;;;;;;5030481;28;20502;-68
2023/12/28 06:27:46;;;;;;;1.50;1.40;;;;;;;;;;5037536;28;20928;-69
2023/12/28 06:30:14;;;;;;;1.50;1.40;;;;;;;;;;5038759;28;20431;-68
2023/12/28 06:32:44;;;;;;;1.40;1.30;;;;;;;;;;5028061;28;20439;-69
2023/12/28 06:35:13;;;;;;;1.90;1.30;;;;;;;;;;5044195;28;20436;-68
2023/12/28 06:37:40;;;;;;;1.50;1.40;;;;;;;;;;5039826;28;20429;-70
2023/12/28 06:40:08;;;;;;;1.77;1.38;;;;;;;;;;5045340;28;20440;-70
2023/12/28 06:42:35;;;;;;;1.55;1.40;;;;;;;;;;5028217;28;20442;-68
2023/12/28 06:45:02;;;;;;;1.70;1.50;;;;;;;;;;5035569;28;20516;-68
2023/12/28 06:47:29;;;;;;;1.50;1.40;;;;;;;;;;5045837;28;21094;-68
2023/12/28 06:49:59;;;;;;;2.05;1.52;;;;;;;;;;5047762;28;20444;-70
2023/12/28 06:52:26;;;;;;;1.63;1.50;;;;;;;;;;5032822;28;20423;-70
2023/12/28 06:54:53;;;;;;;1.60;1.35;;;;;;;;;;5043664;28;20514;-70
2023/12/28 06:57:21;;;;;;;2.50;1.50;;;;;;;;;;5044720;28;20433;-70
2023/12/28 06:59:48;;;;;;;1.60;1.50;;;;;;;;;;5034644;28;20502;-70
2023/12/28 07:02:15;;;;;;;1.57;1.47;;;;;;;;;;5036214;28;20461;-68
2023/12/28 07:04:42;;;;;;;2.00;1.60;;;;;;;;;;5027834;28;20447;-67
2023/12/28 07:07:10;;;;;;;2.55;1.60;;;;;;;;;;5037298;28;20433;-68
2023/12/28 07:09:37;;;;;;;2.28;1.73;;;;;;;;;;5032807;28;20433;-70
2023/12/28 07:12:04;;;;;;;1.40;1.30;;;;;;;;;;5039534;28;20461;-70
2023/12/28 07:14:31;;;;;;;1.50;1.40;;;;;;;;;;5042296;28;20425;-68
2023/12/28 07:16:59;;;;;;;1.50;1.40;;;;;;;;;;5040396;28;20432;-68
2023/12/28 07:19:27;;;;;;;3.20;1.40;;;;;;;;;;5041448;28;20429;-68
2023/12/28 07:21:54;;;;;;;2.10;1.45;;;;;;;;;;5041996;28;20439;-68
2023/12/28 07:24:21;;;;;;;2.60;1.60;;;;;;;;;;5048694;28;20429;-69
2023/12/28 07:26:49;;;;;;;1.55;1.35;;;;;;;;;;5036073;28;20505;-70
2023/12/28 07:29:19;;;;;;;1.52;1.42;;;;;;;;;;5046704;28;21106;-68
2023/12/28 07:31:50;;;;;;;2.25;1.50;;;;;;;;;;5045337;28;20438;-68
2023/12/28 07:34:18;;;;;;;1.50;1.40;;;;;;;;;;5030340;28;20455;-68
2023/12/28 07:36:45;;;;;;;1.70;1.60;;;;;;;;;;5034896;28;20429;-68
2023/12/28 07:39:15;;;;;;;1.40;1.30;;;;;;;;;;5042171;28;20422;-68
2023/12/28 07:41:43;;;;;;;2.67;1.40;;;;;;;;;;5040374;28;20483;-68
2023/12/28 07:44:10;;;;;;;2.25;1.83;;;;;;;;;;5042594;28;20486;-68
2023/12/28 07:46:37;;;;;;;1.60;1.47;;;;;;;;;;5050304;28;20483;-68
2023/12/28 07:49:07;;;;;;;1.70;1.60;;;;;;;;;;5039560;28;20470;-70
2023/12/28 07:51:38;;;;;;;2.22;1.48;;;;;;;;;;5033437;28;20466;-70
2023/12/28 07:54:05;;;;;;;1.98;1.77;;;;;;;;;;5050403;28;20532;-69
2023/12/28 07:56:32;;;;;;;2.17;1.70;;;;;;;;;;5031739;28;20430;-68
2023/12/28 07:58:59;;;;;;;2.13;1.80;;;;;;;;;;5033287;28;20478;-70
2023/12/28 08:01:33;;;;;;;3.92;1.75;;;;;;;;;;5037905;28;20440;-68
2023/12/28 08:04:01;;;;;;;2.17;1.75;;;;;;;;;;5039802;28;20819;-68
2023/12/28 08:06:32;;;;;;;1.88;1.77;;;;;;;;;;5033520;28;20430;-68
2023/12/28 08:09:00;;;;;;;2.08;1.73;;;;;;;;;;5045191;28;20456;-68
2023/12/28 08:11:31;;;;;;;3.20;2.63;;;;;;;;;;5040703;28;20563;-68
2023/12/28 08:13:58;;;;;;;2.58;1.88;;;;;;;;;;5042957;28;20516;-68
2023/12/28 08:16:26;;;;;;;2.05;1.85;;;;;;;;;;5049479;28;20429;-68
2023/12/28 08:18:53;;;;;;;2.20;1.85;;;;;;;;;;5040663;28;20431;-69
2023/12/28 08:21:20;;;;;;;1.90;1.70;;;;;;;;;;5046119;28;20429;-69
2023/12/28 08:23:47;;;;;;;2.75;2.33;;;;;;;;;;5042429;28;20946;-69
2023/12/28 08:26:14;;;;;;;2.50;1.65;;;;;;;;;;5038437;28;20491;-69
2023/12/28 08:28:47;;;;;;;2.28;1.70;;;;;;;;;;5033561;28;20437;-69
2023/12/28 08:31:17;;;;;;;1.83;1.70;;;;;;;;;;5045147;28;20433;-69
2023/12/28 08:33:51;;;;;;;1.80;1.65;;;;;;;;;;5040213;28;20429;-69
2023/12/28 08:36:21;;;;;;;2.15;1.70;;;;;;;;;;5033266;28;20546;-69
2023/12/28 08:38:48;;;;;;;2.40;1.63;;;;;;;;;;5037444;28;20521;-69
2023/12/28 08:41:23;;;;;;;2.30;1.65;;;;;;;;;;5042603;28;20927;-69
2023/12/28 08:43:52;;;;;;;2.17;1.80;;;;;;;;;;5031002;28;20438;-69
2023/12/28 08:46:20;;;;;;;2.28;1.95;;;;;;;;;;5041009;28;20460;-69
2023/12/28 08:48:48;;;;;;;2.42;2.03;;;;;;;;;;5040985;28;20475;-68
2023/12/28 08:51:15;;;;;;;1.90;1.80;;;;;;;;;;5033664;28;20801;-69
2023/12/28 08:53:45;;;;;;;1.73;1.63;;;;;;;;;;5037016;28;21428;-69
2023/12/28 08:56:22;;;;;;;2.60;1.70;;;;;;;;;;5031348;28;20480;-69
2023/12/28 08:58:51;;;;;;;2.00;1.90;;;;;;;;;;5044577;28;20446;-69
2023/12/28 09:01:21;;;;;;;2.95;1.80;;;;;;;;;;5034743;28;20508;-68
2023/12/28 09:03:49;;;;;;;3.65;1.85;;;;;;;;;;5044893;28;20534;-68
2023/12/28 09:06:17;;;;;;;1.98;1.80;;;;;;;;;;5033721;28;20905;-68
2023/12/28 09:08:59;;;;;;;1.95;1.85;;;;;;;;;;5036994;28;20876;-68
2023/12/28 09:11:29;;;;;;;3.50;1.80;;;;;;;;;;5045185;28;20425;-69
2023/12/28 09:13:58;;;;;;;3.07;1.90;;;;;;;;;;5035500;28;20524;-69
2023/12/28 09:16:25;;;;;;;2.85;1.92;;;;;;;;;;5037289;28;20483;-69
2023/12/28 09:18:52;;;;;;;2.38;1.50;;;;;;;;;;5035932;28;20930;-69
2023/12/28 09:21:20;;;;;;;1.90;1.60;;;;;;;;;;5043427;28;20511;-69
2023/12/28 09:23:48;;;;;;;2.65;1.45;;;;;;;;;;5047375;28;20494;-68
2023/12/28 09:26:15;;;;;;;3.17;1.67;;;;;;;;;;5035464;28;20537;-69
2023/12/28 09:28:42;;;;;;;1.60;1.50;;;;;;;;;;5028083;28;20979;-69
2023/12/28 09:31:09;;;;;;;2.22;1.67;;;;;;;;;;5041722;28;20449;-69
2023/12/28 09:33:36;;;;;;;4.50;1.70;;;;;;;;;;5045158;28;20461;-69
2023/12/28 09:36:04;;;;;;;3.47;1.60;;;;;;;;;;5031987;28;20448;-69
2023/12/28 09:38:32;;;;;;;2.20;1.40;;;;;;;;;;5037877;28;20426;-69
2023/12/28 09:40:59;;;;;;;2.60;1.55;;;;;;;;;;5036620;28;20427;-69
2023/12/28 09:43:36;;;;;;;1.52;1.50;;;;;;;;;;5028217;28;20454;-69
2023/12/28 09:46:07;;;;;;;2.05;1.40;;;;;;;;;;5046322;28;20811;-69
2023/12/28 09:48:37;;;;;;;1.73;1.50;;;;;;;;;;5034820;28;20563;-70
2023/12/28 09:51:05;;;;;;;2.72;1.52;;;;;;;;;;5036607;28;20435;-69
2023/12/28 09:53:38;;;;;;;2.30;1.43;;;;;;;;;;5028019;28;20531;-69
2023/12/28 09:56:06;;;;;;;2.90;1.60;;;;;;;;;;5035886;28;20965;-69
2023/12/28 09:58:34;;;;;;;2.72;1.70;;;;;;;;;;5043276;28;20429;-69
2023/12/28 10:01:06;;;;;;;1.63;1.52;;;;;;;;;;5036723;28;20453;-69
2023/12/28 10:03:33;;;;;;;3.03;1.38;;;;;;;;;;5034517;28;20433;-69
2023/12/28 10:06:00;;;;;;;2.20;1.50;;;;;;;;;;5034724;28;20457;-69
2023/12/28 10:08:30;;;;;;;1.87;1.40;;;;;;;;;;5046201;28;20432;-69
2023/12/28 10:10:58;;;;;;;1.60;1.50;;;;;;;;;;5036251;28;21003;-69
2023/12/28 10:13:26;;;;;;;2.10;1.50;;;;;;;;;;5036233;28;20826;-69
2023/12/28 10:15:53;;;;;;;2.10;1.60;;;;;;;;;;5030460;28;20483;-70
2023/12/28 10:18:20;;;;;;;1.90;1.40;;;;;;;;;;5038148;28;20438;-69
2023/12/28 10:20:51;;;;;;;2.75;1.58;;;;;;;;;;5039013;28;20941;-69
2023/12/28 10:23:20;;;;;;;1.67;1.40;;;;;;;;;;5045729;28;20428;-69
2023/12/28 10:25:49;;;;;;;2.05;1.70;;;;;;;;;;5035970;28;20439;-69
2023/12/28 10:28:19;;;;;;;3.25;1.52;;;;;;;;;;5038705;28;20444;-69
2023/12/28 10:30:47;;;;;;;2.08;1.40;;;;;;;;;;5036553;28;20434;-69
2023/12/28 10:33:15;;;;;;;2.30;1.20;;;;;;;;;;5034732;28;20512;-70
2023/12/28 10:35:45;;;;;;;2.58;1.40;;;;;;;;;;5036052;28;21029;-69
2023/12/28 10:38:14;;;;;;;1.50;1.40;;;;;;;;;;5034621;28;20489;-69
2023/12/28 10:40:42;;;;;;;2.07;1.50;;;;;;;;;;5040181;28;20425;-68
2023/12/28 10:43:14;;;;;;;1.60;1.27;;;;;;;;;;5036694;28;20461;-69
2023/12/28 10:45:43;;;;;;;1.90;1.55;;;;;;;;;;5030940;28;20492;-69
2023/12/28 10:48:11;;;;;;;1.35;1.25;;;;;;;;;;5049868;28;20787;-69
2023/12/28 10:50:46;;;;;;;1.95;1.63;;;;;;;;;;5034705;28;20430;-68
2023/12/28 10:53:19;;;;;;;1.80;1.20;;;;;;;;;;5038246;28;20679;-68
2023/12/28 10:56:04;;;;;;;1.65;1.55;;;;;;;;;;5035573;28;20429;-69
2023/12/28 10:58:50;;;;;;;1.80;1.40;;;;;;;;;;5035973;28;20454;-69
2023/12/28 11:01:23;;;;;;;1.67;1.20;;;;;;;;;;5043771;28;20433;-68
2023/12/28 11:03:53;;;;;;;1.75;1.65;;;;;;;;;;5035805;28;20438;-69
2023/12/28 11:06:27;;;;;;;3.35;1.50;;;;;;;;;;5031807;28;20444;-68
2023/12/28 11:08:58;;;;;;;3.03;1.55;;;;;;;;;;5041075;28;20432;-70
2023/12/28 11:11:30;;;;;;;2.60;1.20;;;;;;;;;;5051556;28;20469;-69
2023/12/28 11:14:00;;;;;;;3.42;1.50;;;;;;;;;;5037143;28;20433;-69
2023/12/28 11:16:32;;;;;;;2.38;1.10;;;;;;;;;;5051159;28;20480;-68
2023/12/28 11:18:59;;;;;;;1.65;1.42;;;;;;;;;;5038156;28;20485;-68
2023/12/28 11:21:27;;;;;;;1.50;1.20;;;;;;;;;;5036082;28;20433;-68
2023/12/28 11:23:55;;;;;;;4.30;1.40;;;;;;;;;;5039373;28;20431;-68
2023/12/28 11:26:22;;;;;;;1.25;1.20;;;;;;;;;;5042563;28;20431;-69
2023/12/28 11:29:03;;;;;;;1.60;1.50;;;;;;;;;;5030800;28;20442;-69
2023/12/28 11:31:36;;;;;;;2.28;1.40;;;;;;;;;;5044851;28;21035;-68
2023/12/28 11:34:07;;;;;;;3.75;1.70;;;;;;;;;;5034795;28;20570;-68
2023/12/28 11:36:50;;;;;;;1.83;1.35;;;;;;;;;;5040677;28;20430;-68
2023/12/28 11:39:21;;;;;;;2.25;1.30;;;;;;;;;;5040954;28;20425;-68
2023/12/28 11:41:48;;;;;;;2.67;1.65;;;;;;;;;;5037544;28;20793;-69
2023/12/28 11:44:17;;;;;;;2.30;1.30;;;;;;;;;;5038960;28;20462;-68
2023/12/28 11:46:44;;;;;;;4.95;1.60;;;;;;;;;;5030837;28;20435;-68
2023/12/28 11:49:11;;;;;;;2.55;1.60;;;;;;;;;;5033283;28;20515;-68
2023/12/28 11:51:39;;;;;;;1.87;1.50;;;;;;;;;;5038036;28;20526;-68
2023/12/28 11:54:07;;;;;;;2.28;1.42;;;;;;;;;;5037594;28;20441;-69
2023/12/28 11:56:34;;;;;;;4.22;1.60;;;;;;;;;;5046519;28;20433;-69
2023/12/28 11:59:01;;;;;;;2.10;1.40;;;;;;;;;;5038231;28;20438;-68
2023/12/28 12:01:29;;;;;;;2.03;1.48;;;;;;;;;;5044499;28;20474;-69
2023/12/28 12:03:56;;;;;;;2.67;1.20;;;;;;;;;;5044185;28;20454;-68
2023/12/28 12:06:24;;;;;;;1.83;1.23;;;;;;;;;;5034761;28;20453;-69
2023/12/28 12:08:52;;;;;;;1.33;0.93;;;;;;;;;;5040884;28;20559;-69
2023/12/28 12:11:19;;;;;;;2.13;1.30;;;;;;;;;;5046908;28;20464;-68
2023/12/28 12:13:46;;;;;;;2.27;1.37;;;;;;;;;;5048003;28;20464;-69
2023/12/28 12:16:17;;;;;;;3.70;1.33;;;;;;;;;;5035399;28;20432;-69
2023/12/28 12:18:44;;;;;;;1.73;1.38;;;;;;;;;;5045702;28;20460;-68
2023/12/28 12:21:12;;;;;;;1.10;1.00;;;;;;;;;;5032595;28;20736;-69
2023/12/28 12:23:40;;;;;;;1.70;1.20;;;;;;;;;;5039389;28;20431;-68
2023/12/28 12:26:07;;;;;;;1.70;1.10;;;;;;;;;;5035134;28;20433;-68
2023/12/28 12:28:35;;;;;;;3.22;1.10;;;;;;;;;;5031438;28;20433;-68
2023/12/28 12:31:04;;;;;;;1.30;1.20;;;;;;;;;;5041975;28;20429;-68
2023/12/28 12:33:32;;;;;;;1.55;1.20;;;;;;;;;;5048159;28;20498;-68
2023/12/28 12:36:02;;;;;;;2.53;1.30;;;;;;;;;;5044430;28;20487;-68
2023/12/28 12:38:31;;;;;;;2.58;1.33;;;;;;;;;;5037300;28;20429;-69
2023/12/28 12:40:58;;;;;;;2.63;1.35;;;;;;;;;;5028827;28;20433;-69
2023/12/28 12:43:26;;;;;;;2.25;1.45;;;;;;;;;;5043258;28;20818;-69
2023/12/28 12:45:54;;;;;;;1.20;1.10;;;;;;;;;;5040342;28;20473;-69
2023/12/28 12:48:22;;;;;;;2.60;1.60;;;;;;;;;;5049324;28;20961;-69
2023/12/28 12:50:50;;;;;;;3.80;1.58;;;;;;;;;;5048776;28;20807;-67
2023/12/28 12:53:17;;;;;;;2.35;1.52;;;;;;;;;;5040232;28;20471;-70
2023/12/28 12:55:46;;;;;;;2.72;1.60;;;;;;;;;;5037087;28;20431;-70
2023/12/28 12:58:17;;;;;;;2.75;1.65;;;;;;;;;;5037574;28;20429;-70
2023/12/28 13:00:47;;;;;;;2.30;1.73;;;;;;;;;;5034700;28;20519;-70
2023/12/28 13:03:14;;;;;;;2.67;1.40;;;;;;;;;;5036974;28;20504;-70
2023/12/28 13:05:44;;;;;;;2.65;1.45;;;;;;;;;;5030795;28;20909;-69
2023/12/28 13:08:11;;;;;;;2.75;1.77;;;;;;;;;;5041046;28;20461;-70
2023/12/28 13:10:41;;;;;;;2.58;1.48;;;;;;;;;;5037137;28;20425;-70
2023/12/28 13:13:08;;;;;;;3.00;1.50;;;;;;;;;;5045277;28;20429;-70
2023/12/28 13:15:39;;;;;;;3.15;1.60;;;;;;;;;;5037252;28;20435;-69
2023/12/28 13:18:09;;;;;;;1.47;1.37;;;;;;;;;;5037274;28;20433;-69
2023/12/28 13:20:36;;;;;;;1.88;1.27;;;;;;;;;;5028918;28;20465;-69
2023/12/28 13:23:10;;;;;;;2.15;1.45;;;;;;;;;;5030382;28;20466;-69
2023/12/28 13:25:39;;;;;;;2.03;1.20;;;;;;;;;;5048310;28;20903;-69
2023/12/28 13:28:07;;;;;;;3.25;1.20;;;;;;;;;;5028579;28;20439;-69
2023/12/28 13:30:36;;;;;;;3.33;1.48;;;;;;;;;;5036130;28;20419;-69
2023/12/28 13:33:05;;;;;;;2.67;1.57;;;;;;;;;;5035918;28;20493;-70
2023/12/28 13:35:33;;;;;;;1.67;1.30;;;;;;;;;;5036103;28;20554;-69
2023/12/28 13:38:03;;;;;;;1.73;1.30;;;;;;;;;;5037138;28;20598;-70
2023/12/28 13:40:34;;;;;;;2.50;1.20;;;;;;;;;;5028272;28;20439;-69
2023/12/28 13:43:07;;;;;;;1.40;1.20;;;;;;;;;;5038053;28;20431;-69
2023/12/28 13:45:36;;;;;;;0.80;0.80;;;;;;;;;;5038297;28;20432;-70
2023/12/28 13:48:07;;;;;;;2.20;0.90;;;;;;;;;;5033168;28;20927;-70
2023/12/28 13:50:34;;;;;;;0.77;0.77;;;;;;;;;;5037104;28;20443;-69
2023/12/28 13:53:02;;;;;;;1.67;0.90;;;;;;;;;;5030615;28;20448;-69
2023/12/28 13:55:33;;;;;;;1.10;1.00;;;;;;;;;;5041257;28;20433;-68
2023/12/28 13:58:00;;;;;;;1.10;0.90;;;;;;;;;;5039987;28;20435;-69
2023/12/28 14:00:27;;;;;;;0.70;0.70;;;;;;;;;;5047390;28;20429;-68
2023/12/28 14:02:54;;;;;;;0.70;0.70;;;;;;;;;;5047312;28;20839;-69
2023/12/28 14:05:25;;;;;;;0.63;0.63;;;;;;;;;;5034404;28;20518;-69
2023/12/28 14:07:53;;;;;;;0.82;0.82;;;;;;;;;;5038375;28;20429;-68
2023/12/28 14:10:23;;;;;;;0.80;0.75;;;;;;;;;;5033348;28;20498;-68
2023/12/28 14:12:50;;;;;;;1.00;1.00;;;;;;;;;;5030356;28;20514;-69
2023/12/28 14:15:18;;;;;;;1.20;1.00;;;;;;;;;;5033376;28;20799;-68
2023/12/28 14:17:45;;;;;;;1.02;1.00;;;;;;;;;;5034891;28;20435;-69
2023/12/28 14:20:19;;;;;;;1.20;1.10;;;;;;;;;;5039918;28;20425;-69
2023/12/28 14:22:46;;;;;;;1.30;1.20;;;;;;;;;;5038967;28;20437;-68
2023/12/28 14:25:13;;;;;;;2.13;1.20;;;;;;;;;;5047662;28;20435;-68
2023/12/28 14:27:43;;;;;;;1.48;1.38;;;;;;;;;;5042380;28;20448;-68
2023/12/28 14:30:11;;;;;;;1.10;1.10;;;;;;;;;;5038060;28;20446;-68
2023/12/28 14:32:38;;;;;;;1.10;1.10;;;;;;;;;;5039430;28;20494;-68
2023/12/28 14:35:09;;;;;;;1.48;1.27;;;;;;;;;;5034791;28;20487;-68
2023/12/28 14:37:37;;;;;;;1.70;1.50;;;;;;;;;;5041669;28;20435;-68
2023/12/28 14:40:07;;;;;;;1.30;1.20;;;;;;;;;;5035074;28;20455;-68
2023/12/28 14:42:37;;;;;;;2.78;1.15;;;;;;;;;;5033517;28;20431;-68
2023/12/28 14:45:08;;;;;;;1.00;1.00;;;;;;;;;;5046923;28;20451;-68
2023/12/28 14:47:38;;;;;;;1.47;1.30;;;;;;;;;;5051214;28;20504;-68
2023/12/28 14:50:06;;;;;;;1.35;1.20;;;;;;;;;;5048761;28;20449;-68